Time,TemperatureF,DewpointF,PressureIn,WindDirection,WindDirectionDegrees,WindSpeedMPH,WindSpeedGustMPH,Humidity,HourlyPrecipIn,Conditions,Clouds,dailyrainin,SoftwareType,DateUTC
2013-10-11 00:08:00,60.2,57.0,29.98,East,82,0.0,0.0,89,0.00,,,0.00,weatherlink.com 1.10,2013-10-11 05:08:00,
2013-10-11 00:23:00,59.8,57.0,29.98,East,82,0.0,1.0,90,0.00,,,0.00,weatherlink.com 1.10,2013-10-11 05:23:00,
2013-10-11 00:39:00,59.8,57.0,29.98,East,82,1.0,1.0,90,0.00,,,0.00,weatherlink.com 1.10,2013-10-11 05:39:00,
2013-10-11 00:53:00,59.9,57.0,29.98,East,82,0.0,1.0,90,0.00,,,0.00,weatherlink.com 1.10,2013-10-11 05:53:00,
2013-10-11 01:08:00,59.6,57.0,29.98,East,82,0.0,1.0,91,0.00,,,0.00,weatherlink.com 1.10,2013-10-11 06:08:00,
2013-10-11 01:24:00,58.9,56.0,29.97,East,84,0.0,2.0,91,0.00,,,0.00,weatherlink.com 1.10,2013-10-11 06:24:00,
2013-10-11 01:38:00,58.9,56.0,29.97,East,82,2.0,2.0,91,0.00,,,0.00,weatherlink.com 1.10,2013-10-11 06:38:00,
2013-10-11 01:54:00,57.6,56.0,29.97,East,84,0.0,2.0,93,0.00,,,0.00,weatherlink.com 1.10,2013-10-11 06:54:00,
2013-10-11 02:08:00,58.1,56.0,29.97,East,88,1.0,2.0,94,0.00,,,0.00,weatherlink.com 1.10,2013-10-11 07:08:00,
2013-10-11 02:25:00,57.7,56.0,29.97,East,88,0.0,1.0,94,0.00,,,0.00,weatherlink.com 1.10,2013-10-11 07:25:00,
2013-10-11 02:39:00,57.7,56.0,29.97,East,87,1.0,1.0,95,0.00,,,0.00,weatherlink.com 1.10,2013-10-11 07:39:00,
2013-10-11 02:53:00,57.6,56.0,29.97,East,87,0.0,1.0,95,0.00,,,0.00,weatherlink.com 1.10,2013-10-11 07:53:00,
2013-10-11 03:09:00,57.4,56.0,29.97,East,88,1.0,1.0,95,0.00,,,0.00,weatherlink.com 1.10,2013-10-11 08:09:00,
2013-10-11 03:24:00,57.2,56.0,29.98,East,87,0.0,1.0,96,0.00,,,0.00,weatherlink.com 1.10,2013-10-11 08:24:00,
2013-10-11 03:39:00,57.0,56.0,29.98,East,88,1.0,1.0,96,0.00,,,0.00,weatherlink.com 1.10,2013-10-11 08:39:00,
2013-10-11 03:54:00,56.8,56.0,29.99,East,87,0.0,1.0,96,0.00,,,0.00,weatherlink.com 1.10,2013-10-11 08:54:00,
2013-10-11 04:10:00,56.6,56.0,29.99,East,84,3.0,3.0,96,0.00,,,0.00,weatherlink.com 1.10,2013-10-11 09:10:00,
2013-10-11 04:24:00,55.5,54.0,30.00,East,84,1.0,2.0,96,0.00,,,0.00,weatherlink.com 1.10,2013-10-11 09:24:00,
2013-10-11 04:40:00,55.4,55.0,30.00,East,84,2.0,2.0,97,0.00,,,0.00,weatherlink.com 1.10,2013-10-11 09:40:00,
2013-10-11 04:55:00,55.5,55.0,29.99,East,83,2.0,2.0,97,0.00,,,0.00,weatherlink.com 1.10,2013-10-11 09:55:00,
2013-10-11 05:09:00,55.3,55.0,29.99,East,80,2.0,3.0,97,0.00,,,0.00,weatherlink.com 1.10,2013-10-11 10:09:00,
2013-10-11 05:25:00,55.1,54.0,29.99,East,80,0.0,2.0,97,0.00,,,0.00,weatherlink.com 1.10,2013-10-11 10:25:00,
2013-10-11 05:40:00,55.0,54.0,29.99,East,80,0.0,2.0,97,0.00,,,0.00,weatherlink.com 1.10,2013-10-11 10:40:00,
2013-10-11 05:56:00,54.8,54.0,30.00,East,79,3.0,4.0,97,0.00,,,0.00,weatherlink.com 1.10,2013-10-11 10:56:00,
2013-10-11 06:10:00,54.7,54.0,30.00,ENE,78,1.0,3.0,98,0.00,,,0.00,weatherlink.com 1.10,2013-10-11 11:10:00,
2013-10-11 06:26:00,54.7,54.0,30.00,East,86,1.0,2.0,97,0.00,,,0.00,weatherlink.com 1.10,2013-10-11 11:26:00,
2013-10-11 06:40:00,54.2,53.0,30.00,ENE,73,1.0,3.0,97,0.00,,,0.00,weatherlink.com 1.10,2013-10-11 11:40:00,
2013-10-11 06:56:00,54.4,54.0,29.99,East,88,2.0,3.0,98,0.00,,,0.00,weatherlink.com 1.10,2013-10-11 11:56:00,
2013-10-11 07:11:00,54.7,54.0,29.99,East,97,0.0,2.0,98,0.00,,,0.00,weatherlink.com 1.10,2013-10-11 12:11:00,
2013-10-11 07:25:00,54.7,54.0,30.00,East,97,0.0,2.0,98,0.00,,,0.00,weatherlink.com 1.10,2013-10-11 12:25:00,
2013-10-11 07:41:00,54.9,54.0,30.00,East,98,1.0,1.0,98,0.00,,,0.00,weatherlink.com 1.10,2013-10-11 12:41:00,
2013-10-11 07:55:00,54.8,54.0,30.00,East,84,2.0,2.0,98,0.00,,,0.00,weatherlink.com 1.10,2013-10-11 12:55:00,
2013-10-11 08:11:00,55.3,55.0,30.00,East,84,2.0,2.0,98,0.00,,,0.00,weatherlink.com 1.10,2013-10-11 13:11:00,
2013-10-11 08:26:00,56.3,56.0,30.01,East,84,0.0,1.0,98,0.00,,,0.00,weatherlink.com 1.10,2013-10-11 13:26:00,
2013-10-11 08:42:00,57.0,57.0,30.01,East,84,1.0,2.0,98,0.00,,,0.00,weatherlink.com 1.10,2013-10-11 13:42:00,
2013-10-11 08:56:00,58.3,58.0,30.01,ESE,120,0.0,1.0,98,0.00,,,0.00,weatherlink.com 1.10,2013-10-11 13:56:00,
2013-10-11 09:12:00,60.0,59.0,30.00,East,80,3.0,3.0,96,0.00,,,0.00,weatherlink.com 1.10,2013-10-11 14:12:00,
2013-10-11 09:26:00,61.4,59.0,30.00,East,79,1.0,3.0,92,0.00,,,0.00,weatherlink.com 1.10,2013-10-11 14:26:00,
2013-10-11 09:42:00,63.2,60.0,30.00,WSW,248,2.0,6.0,88,0.00,,,0.00,weatherlink.com 1.10,2013-10-11 14:42:00,
2013-10-11 09:57:00,64.3,60.0,29.99,East,92,2.0,6.0,87,0.00,,,0.00,weatherlink.com 1.10,2013-10-11 14:57:00,
2013-10-11 10:12:00,66.6,62.0,30.00,SE,144,1.0,4.0,84,0.00,,,0.00,weatherlink.com 1.10,2013-10-11 15:12:00,
2013-10-11 10:26:00,67.2,62.0,29.99,WSW,240,1.0,4.0,83,0.00,,,0.00,weatherlink.com 1.10,2013-10-11 15:26:00,
2013-10-11 10:42:00,68.4,62.0,29.99,SSW,204,6.0,11.0,81,0.00,,,0.00,weatherlink.com 1.10,2013-10-11 15:42:00,
2013-10-11 10:57:00,69.9,62.0,29.98,WSW,240,7.0,11.0,77,0.00,,,0.00,weatherlink.com 1.10,2013-10-11 15:57:00,
2013-10-11 11:12:00,70.5,62.0,29.98,SSW,207,2.0,10.0,75,0.00,,,0.00,weatherlink.com 1.10,2013-10-11 16:12:00,
2013-10-11 11:28:00,71.3,61.0,29.98,SW,216,13.0,16.0,69,0.00,,,0.00,weatherlink.com 1.10,2013-10-11 16:28:00,
2013-10-11 11:42:00,72.8,60.0,29.97,SSE,163,7.0,18.0,65,0.00,,,0.00,weatherlink.com 1.10,2013-10-11 16:42:00,
2013-10-11 11:58:00,73.1,59.0,29.97,SW,225,4.0,16.0,62,0.00,,,0.00,weatherlink.com 1.10,2013-10-11 16:58:00,
2013-10-11 12:13:00,73.9,59.0,29.97,WSW,245,4.0,11.0,61,0.00,,,0.00,weatherlink.com 1.10,2013-10-11 17:13:00,
2013-10-11 12:28:00,74.2,60.0,29.96,SW,219,7.0,13.0,61,0.00,,,0.00,weatherlink.com 1.10,2013-10-11 17:28:00,
2013-10-11 12:42:00,75.4,59.0,29.94,SW,225,11.0,15.0,57,0.00,,,0.00,weatherlink.com 1.10,2013-10-11 17:42:00,
2013-10-11 12:59:00,75.9,59.0,29.94,WSW,245,9.0,11.0,56,0.00,,,0.00,weatherlink.com 1.10,2013-10-11 17:59:00,
2013-10-11 13:14:00,76.2,59.0,29.93,SE,139,1.0,12.0,55,0.00,,,0.00,weatherlink.com 1.10,2013-10-11 18:14:00,
2013-10-11 13:28:00,76.6,59.0,29.92,SW,224,4.0,14.0,55,0.00,,,0.00,weatherlink.com 1.10,2013-10-11 18:28:00,
2013-10-11 13:44:00,76.9,58.0,29.91,South,176,2.0,9.0,53,0.00,,,0.00,weatherlink.com 1.10,2013-10-11 18:44:00,
2013-10-11 13:58:00,77.6,59.0,29.90,North,8,3.0,13.0,53,0.00,,,0.00,weatherlink.com 1.10,2013-10-11 18:58:00,
2013-10-11 14:13:00,77.6,59.0,29.89,ESE,122,2.0,10.0,53,0.00,,,0.00,weatherlink.com 1.10,2013-10-11 19:13:00,
2013-10-11 14:29:00,78.4,59.0,29.89,East,80,6.0,14.0,51,0.00,,,0.00,weatherlink.com 1.10,2013-10-11 19:29:00,
2013-10-11 14:44:00,78.8,59.0,29.88,WSW,248,6.0,14.0,51,0.00,,,0.00,weatherlink.com 1.10,2013-10-11 19:44:00,
2013-10-11 14:59:00,78.3,59.0,29.88,ESE,115,4.0,10.0,51,0.00,,,0.00,weatherlink.com 1.10,2013-10-11 19:59:00,
2013-10-11 15:13:00,78.9,58.0,29.87,SW,232,8.0,14.0,49,0.00,,,0.00,weatherlink.com 1.10,2013-10-11 20:13:00,
2013-10-11 15:30:00,79.1,58.0,29.86,ESE,115,2.0,9.0,49,0.00,,,0.00,weatherlink.com 1.10,2013-10-11 20:30:00,
2013-10-11 15:44:00,79.4,59.0,29.86,SSE,159,6.0,9.0,49,0.00,,,0.00,weatherlink.com 1.10,2013-10-11 20:44:00,
2013-10-11 16:00:00,79.2,58.0,29.86,SW,228,11.0,13.0,48,0.00,,,0.00,weatherlink.com 1.10,2013-10-11 21:00:00,
2013-10-11 16:15:00,79.5,57.0,29.86,SE,125,4.0,13.0,47,0.00,,,0.00,weatherlink.com 1.10,2013-10-11 21:15:00,
2013-10-11 16:29:00,79.2,58.0,29.86,WSW,246,2.0,9.0,48,0.00,,,0.00,weatherlink.com 1.10,2013-10-11 21:29:00,
2013-10-11 16:45:00,79.2,57.0,29.85,SSW,207,4.0,13.0,47,0.00,,,0.00,weatherlink.com 1.10,2013-10-11 21:45:00,
2013-10-11 17:00:00,79.0,58.0,29.86,SW,230,3.0,7.0,49,0.00,,,0.00,weatherlink.com 1.10,2013-10-11 22:00:00,
2013-10-11 17:14:00,78.4,58.0,29.85,East,80,4.0,9.0,49,0.00,,,0.00,weatherlink.com 1.10,2013-10-11 22:14:00,
2013-10-11 17:30:00,77.6,58.0,29.85,ESE,121,1.0,5.0,51,0.00,,,0.00,weatherlink.com 1.10,2013-10-11 22:30:00,
2013-10-11 17:45:00,76.4,57.0,29.86,SW,225,3.0,7.0,52,0.00,,,0.00,weatherlink.com 1.10,2013-10-11 22:45:00,
2013-10-11 18:00:00,75.4,57.0,29.86,SW,232,0.0,6.0,54,0.00,,,0.00,weatherlink.com 1.10,2013-10-11 23:00:00,
2013-10-11 18:15:00,74.0,57.0,29.86,WNW,288,0.0,4.0,56,0.00,,,0.00,weatherlink.com 1.10,2013-10-11 23:15:00,
2013-10-11 18:31:00,72.6,57.0,29.86,South,172,0.0,4.0,59,0.00,,,0.00,weatherlink.com 1.10,2013-10-11 23:31:00,
2013-10-11 18:45:00,71.5,57.0,29.86,SSE,149,1.0,4.0,60,0.00,,,0.00,weatherlink.com 1.10,2013-10-11 23:45:00,
2013-10-11 19:00:00,70.6,57.0,29.87,SSW,201,2.0,3.0,62,0.00,,,0.00,weatherlink.com 1.10,2013-10-12 00:00:00,
2013-10-11 19:16:00,69.8,57.0,29.87,SSW,205,0.0,3.0,63,0.00,,,0.00,weatherlink.com 1.10,2013-10-12 00:16:00,
2013-10-11 19:30:00,68.9,56.0,29.88,SSW,195,0.0,2.0,64,0.00,,,0.00,weatherlink.com 1.10,2013-10-12 00:30:00,
2013-10-11 19:46:00,68.0,56.0,29.89,SSE,151,0.0,1.0,65,0.00,,,0.00,weatherlink.com 1.10,2013-10-12 00:46:00,
2013-10-11 20:01:00,67.5,56.0,29.89,SSE,150,0.0,1.0,67,0.00,,,0.00,weatherlink.com 1.10,2013-10-12 01:01:00,
2013-10-11 20:17:00,66.9,56.0,29.89,SSE,150,0.0,1.0,68,0.00,,,0.00,weatherlink.com 1.10,2013-10-12 01:17:00,
2013-10-11 20:31:00,66.2,56.0,29.89,SSE,150,0.0,1.0,69,0.00,,,0.00,weatherlink.com 1.10,2013-10-12 01:31:00,
2013-10-11 20:45:00,66.1,56.0,29.90,ESE,120,0.0,2.0,70,0.00,,,0.00,weatherlink.com 1.10,2013-10-12 01:45:00,
2013-10-11 21:01:00,65.8,56.0,29.90,SE,124,0.0,1.0,70,0.00,,,0.00,weatherlink.com 1.10,2013-10-12 02:01:00,
2013-10-11 21:16:00,65.1,56.0,29.90,SE,126,0.0,1.0,72,0.00,,,0.00,weatherlink.com 1.10,2013-10-12 02:16:00,
2013-10-11 21:32:00,64.5,56.0,29.91,WNW,284,0.0,1.0,73,0.00,,,0.00,weatherlink.com 1.10,2013-10-12 02:32:00,
2013-10-11 21:46:00,64.4,56.0,29.91,SE,143,0.0,3.0,73,0.00,,,0.00,weatherlink.com 1.10,2013-10-12 02:46:00,
2013-10-11 22:02:00,64.1,56.0,29.91,ESE,118,1.0,2.0,74,0.00,,,0.00,weatherlink.com 1.10,2013-10-12 03:02:00,
2013-10-11 22:17:00,64.1,56.0,29.90,West,263,0.0,2.0,75,0.00,,,0.00,weatherlink.com 1.10,2013-10-12 03:17:00,
2013-10-11 22:31:00,63.8,56.0,29.90,ESE,108,0.0,2.0,75,0.00,,,0.00,weatherlink.com 1.10,2013-10-12 03:31:00,
2013-10-11 22:47:00,63.4,56.0,29.90,East,99,1.0,3.0,77,0.00,,,0.00,weatherlink.com 1.10,2013-10-12 03:47:00,
2013-10-11 23:01:00,63.7,56.0,29.90,WSW,249,4.0,6.0,77,0.00,,,0.00,weatherlink.com 1.10,2013-10-12 04:01:00,
2013-10-11 23:17:00,63.8,57.0,29.90,SW,235,2.0,4.0,78,0.00,,,0.00,weatherlink.com 1.10,2013-10-12 04:17:00,
2013-10-11 23:32:00,63.6,57.0,29.90,SSW,192,1.0,6.0,79,0.00,,,0.00,weatherlink.com 1.10,2013-10-12 04:32:00,
2013-10-11 23:48:00,63.8,57.0,29.90,SSE,167,5.0,6.0,79,0.00,,,0.00,weatherlink.com 1.10,2013-10-12 04:48:00,